sensor_id;sensor_type;location;lat;lon;timestamp;pressure;altitude;pressure_sealevel;temperature;humidity
84661;BME280;74889;52.240;20.902;2023-12-20T00:00:57;99288.77;;;6.66;88.64
84661;BME280;74889;52.240;20.902;2023-12-20T00:03:23;99287.00;;;6.65;88.52
84661;BME280;74889;52.240;20.902;2023-12-20T00:05:49;99285.24;;;6.65;88.67
84661;BME280;74889;52.240;20.902;2023-12-20T00:08:16;99277.22;;;6.66;88.72
84661;BME280;74889;52.240;20.902;2023-12-20T00:10:43;99275.48;;;6.65;88.64
84661;BME280;74889;52.240;20.902;2023-12-20T00:13:09;99271.23;;;6.65;88.74
84661;BME280;74889;52.240;20.902;2023-12-20T00:15:34;99270.10;;;6.66;88.75
84661;BME280;74889;52.240;20.902;2023-12-20T00:18:00;99267.88;;;6.67;88.71
84661;BME280;74889;52.240;20.902;2023-12-20T00:20:26;99269.36;;;6.68;88.72
84661;BME280;74889;52.240;20.902;2023-12-20T00:22:55;99266.50;;;6.68;88.71
84661;BME280;74889;52.240;20.902;2023-12-20T00:25:21;99267.73;;;6.68;88.86
84661;BME280;74889;52.240;20.902;2023-12-20T00:27:46;99271.15;;;6.68;88.81
84661;BME280;74889;52.240;20.902;2023-12-20T00:30:12;99268.27;;;6.68;88.75
84661;BME280;74889;52.240;20.902;2023-12-20T00:32:39;99260.91;;;6.69;88.91
84661;BME280;74889;52.240;20.902;2023-12-20T00:35:06;99256.64;;;6.69;88.76
84661;BME280;74889;52.240;20.902;2023-12-20T00:37:32;99259.64;;;6.69;88.73
84661;BME280;74889;52.240;20.902;2023-12-20T00:39:58;99257.94;;;6.68;88.77
84661;BME280;74889;52.240;20.902;2023-12-20T00:42:25;99257.92;;;6.69;88.79
84661;BME280;74889;52.240;20.902;2023-12-20T00:44:51;99252.88;;;6.69;88.80
84661;BME280;74889;52.240;20.902;2023-12-20T00:47:18;99251.08;;;6.69;88.88
84661;BME280;74889;52.240;20.902;2023-12-20T00:49:44;99246.11;;;6.69;88.79
84661;BME280;74889;52.240;20.902;2023-12-20T00:52:11;99247.64;;;6.70;88.77
84661;BME280;74889;52.240;20.902;2023-12-20T00:54:36;99247.08;;;6.71;88.95
84661;BME280;74889;52.240;20.902;2023-12-20T00:57:03;99242.67;;;6.70;88.82
84661;BME280;74889;52.240;20.902;2023-12-20T00:59:29;99237.20;;;6.70;88.84
84661;BME280;74889;52.240;20.902;2023-12-20T01:01:56;99239.66;;;6.70;89.03
84661;BME280;74889;52.240;20.902;2023-12-20T01:04:21;99235.69;;;6.71;89.05
84661;BME280;74889;52.240;20.902;2023-12-20T01:06:47;99236.14;;;6.72;88.89
84661;BME280;74889;52.240;20.902;2023-12-20T01:09:12;99241.27;;;6.72;89.13
84661;BME280;74889;52.240;20.902;2023-12-20T01:11:39;99240.44;;;6.71;89.03
84661;BME280;74889;52.240;20.902;2023-12-20T01:14:06;99235.77;;;6.72;89.06
84661;BME280;74889;52.240;20.902;2023-12-20T01:16:31;99235.63;;;6.71;89.08
84661;BME280;74889;52.240;20.902;2023-12-20T01:18:57;99237.90;;;6.72;89.03
84661;BME280;74889;52.240;20.902;2023-12-20T01:21:22;99238.53;;;6.72;89.09
84661;BME280;74889;52.240;20.902;2023-12-20T01:23:48;99236.20;;;6.73;89.12
84661;BME280;74889;52.240;20.902;2023-12-20T01:26:14;99228.12;;;6.74;89.09
84661;BME280;74889;52.240;20.902;2023-12-20T01:28:41;99225.92;;;6.74;89.10
84661;BME280;74889;52.240;20.902;2023-12-20T01:31:08;99221.30;;;6.74;89.11
84661;BME280;74889;52.240;20.902;2023-12-20T01:33:35;99222.73;;;6.74;89.13
84661;BME280;74889;52.240;20.902;2023-12-20T01:36:00;99215.02;;;6.75;89.20
84661;BME280;74889;52.240;20.902;2023-12-20T01:38:26;99216.30;;;6.74;89.27
84661;BME280;74889;52.240;20.902;2023-12-20T01:40:51;99209.72;;;6.74;89.28
84661;BME280;74889;52.240;20.902;2023-12-20T01:43:17;99212.49;;;6.75;89.29
84661;BME280;74889;52.240;20.902;2023-12-20T01:45:42;99214.85;;;6.75;89.21
84661;BME280;74889;52.240;20.902;2023-12-20T01:48:09;99216.25;;;6.75;89.19
84661;BME280;74889;52.240;20.902;2023-12-20T01:50:37;99213.55;;;6.75;89.20
84661;BME280;74889;52.240;20.902;2023-12-20T01:53:05;99209.96;;;6.76;89.29
84661;BME280;74889;52.240;20.902;2023-12-20T01:55:34;99214.10;;;6.77;89.38
84661;BME280;74889;52.240;20.902;2023-12-20T01:58:03;99209.08;;;6.77;89.24
84661;BME280;74889;52.240;20.902;2023-12-20T02:00:31;99202.55;;;6.77;89.30
84661;BME280;74889;52.240;20.902;2023-12-20T02:03:01;99200.77;;;6.77;89.15
84661;BME280;74889;52.240;20.902;2023-12-20T02:05:30;99199.08;;;6.76;89.35
84661;BME280;74889;52.240;20.902;2023-12-20T02:07:57;99196.23;;;6.76;89.37
84661;BME280;74889;52.240;20.902;2023-12-20T02:10:24;99194.45;;;6.76;89.37
84661;BME280;74889;52.240;20.902;2023-12-20T02:12:50;99195.17;;;6.76;89.34
84661;BME280;74889;52.240;20.902;2023-12-20T02:15:16;99191.61;;;6.76;89.21
84661;BME280;74889;52.240;20.902;2023-12-20T02:17:42;99188.19;;;6.77;89.23
84661;BME280;74889;52.240;20.902;2023-12-20T02:20:08;99187.13;;;6.77;89.09
84661;BME280;74889;52.240;20.902;2023-12-20T02:22:34;99183.05;;;6.77;89.26
84661;BME280;74889;52.240;20.902;2023-12-20T02:25:00;99182.02;;;6.76;89.30
84661;BME280;74889;52.240;20.902;2023-12-20T02:27:26;99183.88;;;6.75;89.27
84661;BME280;74889;52.240;20.902;2023-12-20T02:29:54;99181.10;;;6.75;89.28
84661;BME280;74889;52.240;20.902;2023-12-20T02:32:21;99169.18;;;6.75;89.24
84661;BME280;74889;52.240;20.902;2023-12-20T02:34:48;99165.65;;;6.75;89.38
84661;BME280;74889;52.240;20.902;2023-12-20T02:37:14;99159.73;;;6.75;89.27
84661;BME280;74889;52.240;20.902;2023-12-20T02:39:40;99160.17;;;6.74;89.14
84661;BME280;74889;52.240;20.902;2023-12-20T02:42:06;99156.09;;;6.74;89.15
84661;BME280;74889;52.240;20.902;2023-12-20T02:44:32;99155.86;;;6.73;89.21
84661;BME280;74889;52.240;20.902;2023-12-20T02:46:57;99153.58;;;6.73;89.06
84661;BME280;74889;52.240;20.902;2023-12-20T02:49:23;99151.81;;;6.73;89.05
84661;BME280;74889;52.240;20.902;2023-12-20T02:51:48;99154.25;;;6.73;89.05
84661;BME280;74889;52.240;20.902;2023-12-20T02:54:14;99154.20;;;6.72;89.12
84661;BME280;74889;52.240;20.902;2023-12-20T02:56:40;99155.60;;;6.72;88.97
84661;BME280;74889;52.240;20.902;2023-12-20T02:59:07;99157.20;;;6.72;88.94
84661;BME280;74889;52.240;20.902;2023-12-20T03:01:34;99154.36;;;6.72;88.99
84661;BME280;74889;52.240;20.902;2023-12-20T03:04:00;99154.31;;;6.73;89.03
84661;BME280;74889;52.240;20.902;2023-12-20T03:06:27;99156.67;;;6.74;88.87
84661;BME280;74889;52.240;20.902;2023-12-20T03:08:53;99155.39;;;6.74;88.88
84661;BME280;74889;52.240;20.902;2023-12-20T03:11:18;99151.83;;;6.74;88.79
84661;BME280;74889;52.240;20.902;2023-12-20T03:13:44;99152.23;;;6.76;88.95
84661;BME280;74889;52.240;20.902;2023-12-20T03:16:12;99148.42;;;6.77;88.87
84661;BME280;74889;52.240;20.902;2023-12-20T03:18:37;99136.46;;;6.77;88.84
84661;BME280;74889;52.240;20.902;2023-12-20T03:21:04;99138.58;;;6.77;88.76
84661;BME280;74889;52.240;20.902;2023-12-20T03:23:30;99150.29;;;6.77;88.80
84661;BME280;74889;52.240;20.902;2023-12-20T03:25:58;99153.85;;;6.77;88.79
84661;BME280;74889;52.240;20.902;2023-12-20T03:28:23;99151.69;;;6.77;88.70
84661;BME280;74889;52.240;20.902;2023-12-20T03:30:49;99152.71;;;6.78;88.50
84661;BME280;74889;52.240;20.902;2023-12-20T03:33:15;99144.08;;;6.79;88.68
84661;BME280;74889;52.240;20.902;2023-12-20T03:35:41;99142.74;;;6.80;88.71
84661;BME280;74889;52.240;20.902;2023-12-20T03:38:07;99145.37;;;6.80;88.65
84661;BME280;74889;52.240;20.902;2023-12-20T03:40:33;99135.05;;;6.80;88.78
84661;BME280;74889;52.240;20.902;2023-12-20T03:42:58;99135.22;;;6.80;88.62
84661;BME280;74889;52.240;20.902;2023-12-20T03:45:24;99130.65;;;6.80;88.78
84661;BME280;74889;52.240;20.902;2023-12-20T03:47:51;99126.48;;;6.79;88.62
84661;BME280;74889;52.240;20.902;2023-12-20T03:50:22;99130.85;;;6.80;88.63
84661;BME280;74889;52.240;20.902;2023-12-20T03:52:47;99139.66;;;6.81;88.70
84661;BME280;74889;52.240;20.902;2023-12-20T03:55:15;99137.72;;;6.80;88.74
84661;BME280;74889;52.240;20.902;2023-12-20T03:57:40;99138.23;;;6.81;88.80
84661;BME280;74889;52.240;20.902;2023-12-20T04:00:09;99134.58;;;6.80;88.73
84661;BME280;74889;52.240;20.902;2023-12-20T04:02:40;99128.72;;;6.80;88.67
84661;BME280;74889;52.240;20.902;2023-12-20T04:05:08;99124.25;;;6.80;88.64
84661;BME280;74889;52.240;20.902;2023-12-20T04:07:35;99129.58;;;6.80;88.61
84661;BME280;74889;52.240;20.902;2023-12-20T04:10:03;99139.35;;;6.80;88.63
84661;BME280;74889;52.240;20.902;2023-12-20T04:12:32;99131.73;;;6.80;88.60
84661;BME280;74889;52.240;20.902;2023-12-20T04:14:59;99127.52;;;6.79;88.45
84661;BME280;74889;52.240;20.902;2023-12-20T04:17:26;99134.08;;;6.79;88.66
84661;BME280;74889;52.240;20.902;2023-12-20T04:19:52;99144.65;;;6.80;88.61
84661;BME280;74889;52.240;20.902;2023-12-20T04:22:18;99139.02;;;6.80;88.49
84661;BME280;74889;52.240;20.902;2023-12-20T04:24:44;99132.45;;;6.80;88.51
84661;BME280;74889;52.240;20.902;2023-12-20T04:27:11;99129.65;;;6.79;88.38
84661;BME280;74889;52.240;20.902;2023-12-20T04:29:38;99134.30;;;6.79;88.45
84661;BME280;74889;52.240;20.902;2023-12-20T04:32:04;99137.38;;;6.78;88.50
84661;BME280;74889;52.240;20.902;2023-12-20T04:34:30;99130.98;;;6.78;88.58
84661;BME280;74889;52.240;20.902;2023-12-20T04:36:56;99128.77;;;6.78;88.56
84661;BME280;74889;52.240;20.902;2023-12-20T04:39:23;99131.47;;;6.77;88.71
84661;BME280;74889;52.240;20.902;2023-12-20T04:41:48;99136.38;;;6.76;88.75
84661;BME280;74889;52.240;20.902;2023-12-20T04:44:16;99137.62;;;6.76;88.78
84661;BME280;74889;52.240;20.902;2023-12-20T04:46:42;99139.02;;;6.76;88.90
84661;BME280;74889;52.240;20.902;2023-12-20T04:49:08;99141.96;;;6.77;88.90
84661;BME280;74889;52.240;20.902;2023-12-20T04:51:34;99136.80;;;6.77;88.71
84661;BME280;74889;52.240;20.902;2023-12-20T04:54:01;99140.09;;;6.78;88.70
84661;BME280;74889;52.240;20.902;2023-12-20T04:56:28;99137.55;;;6.79;88.75
84661;BME280;74889;52.240;20.902;2023-12-20T04:58:54;99133.85;;;6.80;88.77
84661;BME280;74889;52.240;20.902;2023-12-20T05:01:20;99132.47;;;6.81;88.87
84661;BME280;74889;52.240;20.902;2023-12-20T05:03:47;99129.98;;;6.81;89.00
84661;BME280;74889;52.240;20.902;2023-12-20T05:06:13;99125.98;;;6.82;88.86
84661;BME280;74889;52.240;20.902;2023-12-20T05:08:38;99116.97;;;6.82;88.74
84661;BME280;74889;52.240;20.902;2023-12-20T05:11:05;99124.19;;;6.84;88.91
84661;BME280;74889;52.240;20.902;2023-12-20T05:13:30;99122.16;;;6.85;88.89
84661;BME280;74889;52.240;20.902;2023-12-20T05:15:56;99117.73;;;6.85;89.09
84661;BME280;74889;52.240;20.902;2023-12-20T05:18:21;99113.30;;;6.84;88.98
84661;BME280;74889;52.240;20.902;2023-12-20T05:20:51;99107.08;;;6.85;88.77
84661;BME280;74889;52.240;20.902;2023-12-20T05:23:17;99113.54;;;6.86;88.80
84661;BME280;74889;52.240;20.902;2023-12-20T05:25:45;99114.85;;;6.87;88.92
84661;BME280;74889;52.240;20.902;2023-12-20T05:28:11;99112.16;;;6.87;88.83
84661;BME280;74889;52.240;20.902;2023-12-20T05:30:37;99110.86;;;6.88;88.99
84661;BME280;74889;52.240;20.902;2023-12-20T05:33:03;99111.63;;;6.87;88.79
84661;BME280;74889;52.240;20.902;2023-12-20T05:35:29;99110.36;;;6.87;89.05
84661;BME280;74889;52.240;20.902;2023-12-20T05:37:54;99108.45;;;6.87;88.92
84661;BME280;74889;52.240;20.902;2023-12-20T05:40:20;99105.95;;;6.87;88.88
84661;BME280;74889;52.240;20.902;2023-12-20T05:42:45;99111.92;;;6.87;88.82
84661;BME280;74889;52.240;20.902;2023-12-20T05:45:11;99110.66;;;6.88;88.84
84661;BME280;74889;52.240;20.902;2023-12-20T05:47:36;99104.39;;;6.86;88.81
84661;BME280;74889;52.240;20.902;2023-12-20T05:50:02;99104.48;;;6.86;89.00
84661;BME280;74889;52.240;20.902;2023-12-20T05:52:29;99102.05;;;6.85;88.86
84661;BME280;74889;52.240;20.902;2023-12-20T05:54:55;99100.91;;;6.84;88.86
84661;BME280;74889;52.240;20.902;2023-12-20T05:57:23;99102.98;;;6.85;88.84
84661;BME280;74889;52.240;20.902;2023-12-20T05:59:49;99102.51;;;6.84;88.80
84661;BME280;74889;52.240;20.902;2023-12-20T06:02:14;99100.56;;;6.84;88.85
84661;BME280;74889;52.240;20.902;2023-12-20T06:04:44;99102.86;;;6.84;88.95
84661;BME280;74889;52.240;20.902;2023-12-20T06:07:13;99101.98;;;6.84;88.86
84661;BME280;74889;52.240;20.902;2023-12-20T06:09:40;99105.20;;;6.85;88.92
84661;BME280;74889;52.240;20.902;2023-12-20T06:12:07;99105.62;;;6.87;88.98
84661;BME280;74889;52.240;20.902;2023-12-20T06:14:36;99106.35;;;6.86;89.05
84661;BME280;74889;52.240;20.902;2023-12-20T06:17:45;99107.03;;;6.87;88.99
84661;BME280;74889;52.240;20.902;2023-12-20T06:20:12;99108.71;;;6.86;88.94
84661;BME280;74889;52.240;20.902;2023-12-20T06:22:50;99104.55;;;6.85;89.01
84661;BME280;74889;52.240;20.902;2023-12-20T06:26:02;99106.80;;;6.84;89.10
84661;BME280;74889;52.240;20.902;2023-12-20T06:28:28;99107.41;;;6.83;88.95
84661;BME280;74889;52.240;20.902;2023-12-20T06:30:53;99109.16;;;6.83;88.98
84661;BME280;74889;52.240;20.902;2023-12-20T06:33:20;99112.23;;;6.83;89.09
84661;BME280;74889;52.240;20.902;2023-12-20T06:35:48;99112.20;;;6.83;89.05
84661;BME280;74889;52.240;20.902;2023-12-20T06:38:14;99109.86;;;6.83;88.98
84661;BME280;74889;52.240;20.902;2023-12-20T06:41:00;99111.40;;;6.84;89.07
84661;BME280;74889;52.240;20.902;2023-12-20T06:43:27;99111.20;;;6.84;88.96
84661;BME280;74889;52.240;20.902;2023-12-20T06:45:54;99115.23;;;6.85;89.08
84661;BME280;74889;52.240;20.902;2023-12-20T06:48:19;99118.40;;;6.85;89.05
84661;BME280;74889;52.240;20.902;2023-12-20T06:50:46;99117.38;;;6.85;88.95
84661;BME280;74889;52.240;20.902;2023-12-20T06:53:12;99114.04;;;6.84;89.13
84661;BME280;74889;52.240;20.902;2023-12-20T06:55:37;99115.49;;;6.84;89.05
84661;BME280;74889;52.240;20.902;2023-12-20T06:58:03;99109.17;;;6.85;88.95
84661;BME280;74889;52.240;20.902;2023-12-20T07:00:30;99109.98;;;6.87;89.03
84661;BME280;74889;52.240;20.902;2023-12-20T07:02:56;99111.44;;;6.89;89.16
84661;BME280;74889;52.240;20.902;2023-12-20T07:05:21;99110.09;;;6.90;89.27
84661;BME280;74889;52.240;20.902;2023-12-20T07:07:47;99107.33;;;6.91;89.35
84661;BME280;74889;52.240;20.902;2023-12-20T07:10:13;99104.61;;;6.91;89.29
84661;BME280;74889;52.240;20.902;2023-12-20T07:12:38;99108.03;;;6.92;89.39
84661;BME280;74889;52.240;20.902;2023-12-20T07:15:04;99108.90;;;6.93;89.34
84661;BME280;74889;52.240;20.902;2023-12-20T07:17:31;99111.37;;;6.93;89.44
84661;BME280;74889;52.240;20.902;2023-12-20T07:19:58;99113.48;;;6.93;89.53
84661;BME280;74889;52.240;20.902;2023-12-20T07:22:24;99116.54;;;6.94;89.43
84661;BME280;74889;52.240;20.902;2023-12-20T07:24:49;99120.24;;;6.95;89.55
84661;BME280;74889;52.240;20.902;2023-12-20T07:27:17;99126.25;;;6.95;89.54
84661;BME280;74889;52.240;20.902;2023-12-20T07:29:43;99125.55;;;6.95;89.56
84661;BME280;74889;52.240;20.902;2023-12-20T07:32:09;99117.05;;;6.95;89.60
84661;BME280;74889;52.240;20.902;2023-12-20T07:34:34;99114.95;;;6.94;89.49
84661;BME280;74889;52.240;20.902;2023-12-20T07:37:00;99113.99;;;6.95;89.55
84661;BME280;74889;52.240;20.902;2023-12-20T07:39:25;99114.63;;;6.96;89.44
84661;BME280;74889;52.240;20.902;2023-12-20T07:41:51;99114.09;;;6.96;89.57
84661;BME280;74889;52.240;20.902;2023-12-20T07:44:17;99113.06;;;6.96;89.50
84661;BME280;74889;52.240;20.902;2023-12-20T07:46:42;99111.30;;;6.95;89.41
84661;BME280;74889;52.240;20.902;2023-12-20T07:49:09;99113.59;;;6.95;89.63
84661;BME280;74889;52.240;20.902;2023-12-20T07:51:36;99110.20;;;6.96;89.32
84661;BME280;74889;52.240;20.902;2023-12-20T07:54:02;99112.77;;;6.97;89.52
84661;BME280;74889;52.240;20.902;2023-12-20T07:56:28;99112.10;;;6.96;89.49
84661;BME280;74889;52.240;20.902;2023-12-20T07:58:54;99110.89;;;6.96;89.46
84661;BME280;74889;52.240;20.902;2023-12-20T08:01:19;99111.27;;;6.96;89.54
84661;BME280;74889;52.240;20.902;2023-12-20T08:03:45;99110.61;;;6.95;89.46
84661;BME280;74889;52.240;20.902;2023-12-20T08:06:11;99109.84;;;6.94;89.65
84661;BME280;74889;52.240;20.902;2023-12-20T08:08:37;99111.70;;;6.93;89.49
84661;BME280;74889;52.240;20.902;2023-12-20T08:11:02;99111.04;;;6.93;89.41
84661;BME280;74889;52.240;20.902;2023-12-20T08:13:28;99111.87;;;6.93;89.51
84661;BME280;74889;52.240;20.902;2023-12-20T08:15:55;99111.48;;;6.94;89.32
84661;BME280;74889;52.240;20.902;2023-12-20T08:18:21;99110.80;;;6.93;89.52
84661;BME280;74889;52.240;20.902;2023-12-20T08:20:48;99106.05;;;6.93;89.51
84661;BME280;74889;52.240;20.902;2023-12-20T08:23:14;99105.27;;;6.93;89.57
84661;BME280;74889;52.240;20.902;2023-12-20T08:25:39;99109.41;;;6.95;89.38
84661;BME280;74889;52.240;20.902;2023-12-20T08:28:05;99103.86;;;6.95;89.53
84661;BME280;74889;52.240;20.902;2023-12-20T08:30:30;99103.83;;;6.95;89.66
84661;BME280;74889;52.240;20.902;2023-12-20T08:32:59;99100.47;;;6.95;89.52
84661;BME280;74889;52.240;20.902;2023-12-20T08:35:25;99100.23;;;6.96;89.51
84661;BME280;74889;52.240;20.902;2023-12-20T08:37:51;99101.39;;;6.96;89.46
84661;BME280;74889;52.240;20.902;2023-12-20T08:40:16;99102.64;;;6.97;89.53
84661;BME280;74889;52.240;20.902;2023-12-20T08:42:42;99104.94;;;6.98;89.69
84661;BME280;74889;52.240;20.902;2023-12-20T08:45:08;99102.08;;;6.98;89.64
84661;BME280;74889;52.240;20.902;2023-12-20T08:47:33;99102.59;;;6.99;89.42
84661;BME280;74889;52.240;20.902;2023-12-20T08:50:00;99103.15;;;6.98;89.40
84661;BME280;74889;52.240;20.902;2023-12-20T08:52:27;99104.45;;;6.98;89.45
84661;BME280;74889;52.240;20.902;2023-12-20T08:54:53;99102.92;;;6.97;89.38
84661;BME280;74889;52.240;20.902;2023-12-20T08:57:22;99099.65;;;6.98;89.50
84661;BME280;74889;52.240;20.902;2023-12-20T08:59:51;99099.08;;;6.98;89.45
84661;BME280;74889;52.240;20.902;2023-12-20T09:02:17;99099.78;;;6.98;89.42
84661;BME280;74889;52.240;20.902;2023-12-20T09:04:43;99098.35;;;6.98;89.50
84661;BME280;74889;52.240;20.902;2023-12-20T09:07:27;99097.61;;;6.99;89.35
84661;BME280;74889;52.240;20.902;2023-12-20T09:09:53;99091.95;;;6.98;89.45
84661;BME280;74889;52.240;20.902;2023-12-20T09:12:19;99092.65;;;6.98;89.50
84661;BME280;74889;52.240;20.902;2023-12-20T09:14:46;99086.19;;;6.98;89.46
84661;BME280;74889;52.240;20.902;2023-12-20T09:17:12;99082.89;;;6.97;89.40
84661;BME280;74889;52.240;20.902;2023-12-20T09:19:37;99081.64;;;6.97;89.28
84661;BME280;74889;52.240;20.902;2023-12-20T09:22:05;99076.32;;;6.97;89.50
84661;BME280;74889;52.240;20.902;2023-12-20T09:24:31;99076.55;;;6.98;89.42
84661;BME280;74889;52.240;20.902;2023-12-20T09:26:57;99072.05;;;6.98;89.47
84661;BME280;74889;52.240;20.902;2023-12-20T09:29:23;99066.59;;;6.98;89.39
84661;BME280;74889;52.240;20.902;2023-12-20T09:31:50;99063.59;;;6.98;89.27
84661;BME280;74889;52.240;20.902;2023-12-20T09:34:16;99060.86;;;6.98;89.29
84661;BME280;74889;52.240;20.902;2023-12-20T09:36:43;99058.16;;;6.99;89.27
84661;BME280;74889;52.240;20.902;2023-12-20T09:39:15;99059.35;;;6.99;89.52
84661;BME280;74889;52.240;20.902;2023-12-20T09:41:46;99057.44;;;6.99;89.30
84661;BME280;74889;52.240;20.902;2023-12-20T09:44:16;99059.34;;;6.99;89.23
84661;BME280;74889;52.240;20.902;2023-12-20T09:46:45;99059.00;;;6.99;89.34
84661;BME280;74889;52.240;20.902;2023-12-20T09:49:16;99054.11;;;7.00;89.17
84661;BME280;74889;52.240;20.902;2023-12-20T09:51:42;99054.89;;;7.01;89.28
84661;BME280;74889;52.240;20.902;2023-12-20T09:54:09;99052.50;;;7.02;89.32
84661;BME280;74889;52.240;20.902;2023-12-20T09:56:35;99054.75;;;7.02;89.44
84661;BME280;74889;52.240;20.902;2023-12-20T09:59:00;99050.61;;;7.03;89.31
84661;BME280;74889;52.240;20.902;2023-12-20T10:01:27;99047.49;;;7.02;89.46
84661;BME280;74889;52.240;20.902;2023-12-20T10:03:54;99046.16;;;7.03;89.42
84661;BME280;74889;52.240;20.902;2023-12-20T10:06:21;99040.77;;;7.02;89.32
84661;BME280;74889;52.240;20.902;2023-12-20T10:08:47;99038.22;;;7.01;89.27
84661;BME280;74889;52.240;20.902;2023-12-20T10:11:13;99046.61;;;7.00;89.31
84661;BME280;74889;52.240;20.902;2023-12-20T10:13:42;99046.41;;;6.99;89.34
84661;BME280;74889;52.240;20.902;2023-12-20T10:16:08;99045.80;;;6.98;89.14
84661;BME280;74889;52.240;20.902;2023-12-20T10:18:34;99041.80;;;6.97;89.36
84661;BME280;74889;52.240;20.902;2023-12-20T10:21:03;99042.14;;;6.97;89.40
84661;BME280;74889;52.240;20.902;2023-12-20T10:23:29;99039.60;;;6.98;89.32
84661;BME280;74889;52.240;20.902;2023-12-20T10:25:57;99035.77;;;6.97;89.36
84661;BME280;74889;52.240;20.902;2023-12-20T10:28:26;99034.20;;;6.97;89.36
84661;BME280;74889;52.240;20.902;2023-12-20T10:30:54;99025.33;;;6.97;89.35
84661;BME280;74889;52.240;20.902;2023-12-20T10:33:27;99021.35;;;6.97;89.36
84661;BME280;74889;52.240;20.902;2023-12-20T10:35:54;99020.79;;;6.98;89.37
84661;BME280;74889;52.240;20.902;2023-12-20T10:38:20;99020.54;;;6.98;89.59
84661;BME280;74889;52.240;20.902;2023-12-20T10:40:46;99018.55;;;6.98;89.55
84661;BME280;74889;52.240;20.902;2023-12-20T10:43:12;99016.52;;;6.99;89.42
84661;BME280;74889;52.240;20.902;2023-12-20T10:45:39;99022.26;;;6.99;89.46
84661;BME280;74889;52.240;20.902;2023-12-20T10:48:04;99024.69;;;6.99;89.51
84661;BME280;74889;52.240;20.902;2023-12-20T10:50:31;99026.16;;;7.01;89.40
84661;BME280;74889;52.240;20.902;2023-12-20T10:53:00;99024.80;;;7.02;89.31
84661;BME280;74889;52.240;20.902;2023-12-20T10:55:26;99020.11;;;7.02;89.32
84661;BME280;74889;52.240;20.902;2023-12-20T10:57:52;99020.21;;;7.03;89.35
84661;BME280;74889;52.240;20.902;2023-12-20T11:00:21;99014.07;;;7.02;89.48
84661;BME280;74889;52.240;20.902;2023-12-20T11:02:49;99011.08;;;7.02;89.48
84661;BME280;74889;52.240;20.902;2023-12-20T11:08:35;98999.73;;;7.04;89.54
84661;BME280;74889;52.240;20.902;2023-12-20T11:11:14;98996.28;;;7.04;89.42
84661;BME280;74889;52.240;20.902;2023-12-20T11:13:55;98991.20;;;7.05;89.32
84661;BME280;74889;52.240;20.902;2023-12-20T11:16:22;98987.49;;;7.05;89.41
84661;BME280;74889;52.240;20.902;2023-12-20T11:18:50;98984.11;;;7.05;89.47
84661;BME280;74889;52.240;20.902;2023-12-20T11:21:17;98982.53;;;7.06;89.36
84661;BME280;74889;52.240;20.902;2023-12-20T11:23:43;98972.27;;;7.08;89.51
84661;BME280;74889;52.240;20.902;2023-12-20T11:26:08;98971.61;;;7.09;89.41
84661;BME280;74889;52.240;20.902;2023-12-20T11:28:34;98972.35;;;7.09;89.24
84661;BME280;74889;52.240;20.902;2023-12-20T11:31:01;98976.73;;;7.11;89.32
84661;BME280;74889;52.240;20.902;2023-12-20T11:33:38;98972.20;;;7.12;89.35
84661;BME280;74889;52.240;20.902;2023-12-20T11:36:13;98962.36;;;7.11;89.51
84661;BME280;74889;52.240;20.902;2023-12-20T11:39:09;98963.66;;;7.10;89.38
84661;BME280;74889;52.240;20.902;2023-12-20T11:41:37;98961.55;;;7.08;89.22
84661;BME280;74889;52.240;20.902;2023-12-20T11:44:04;98958.12;;;7.07;89.41
84661;BME280;74889;52.240;20.902;2023-12-20T11:46:31;98952.52;;;7.06;89.38
84661;BME280;74889;52.240;20.902;2023-12-20T11:48:57;98950.66;;;7.05;89.29
84661;BME280;74889;52.240;20.902;2023-12-20T11:51:24;98949.14;;;7.05;89.17
84661;BME280;74889;52.240;20.902;2023-12-20T11:53:52;98945.91;;;7.05;89.33
84661;BME280;74889;52.240;20.902;2023-12-20T11:56:18;98941.81;;;7.05;89.24
84661;BME280;74889;52.240;20.902;2023-12-20T11:58:45;98940.74;;;7.05;89.20
84661;BME280;74889;52.240;20.902;2023-12-20T12:01:11;98936.17;;;7.04;89.22
84661;BME280;74889;52.240;20.902;2023-12-20T12:03:36;98936.27;;;7.02;89.04
84661;BME280;74889;52.240;20.902;2023-12-20T12:06:03;98936.65;;;7.00;89.01
84661;BME280;74889;52.240;20.902;2023-12-20T12:08:30;98935.50;;;6.99;89.06
84661;BME280;74889;52.240;20.902;2023-12-20T12:10:56;98936.29;;;7.00;89.05
84661;BME280;74889;52.240;20.902;2023-12-20T12:13:22;98937.05;;;7.00;89.14
84661;BME280;74889;52.240;20.902;2023-12-20T12:15:48;98940.95;;;6.98;89.11
84661;BME280;74889;52.240;20.902;2023-12-20T12:18:17;98940.13;;;6.96;89.04
84661;BME280;74889;52.240;20.902;2023-12-20T12:20:43;98938.91;;;6.94;88.93
84661;BME280;74889;52.240;20.902;2023-12-20T12:23:08;98933.75;;;6.91;88.70
84661;BME280;74889;52.240;20.902;2023-12-20T12:25:36;98931.90;;;6.88;88.76
84661;BME280;74889;52.240;20.902;2023-12-20T12:28:03;98933.63;;;6.87;88.72
84661;BME280;74889;52.240;20.902;2023-12-20T12:30:29;98930.20;;;6.87;88.71
84661;BME280;74889;52.240;20.902;2023-12-20T12:32:56;98923.69;;;6.85;88.77
84661;BME280;74889;52.240;20.902;2023-12-20T12:35:22;98921.39;;;6.83;88.50
84661;BME280;74889;52.240;20.902;2023-12-20T12:37:47;98920.26;;;6.82;88.44
84661;BME280;74889;52.240;20.902;2023-12-20T12:40:17;98917.61;;;6.80;88.46
84661;BME280;74889;52.240;20.902;2023-12-20T12:42:44;98914.21;;;6.77;88.26
84661;BME280;74889;52.240;20.902;2023-12-20T12:45:11;98914.21;;;6.74;88.23
84661;BME280;74889;52.240;20.902;2023-12-20T12:47:40;98914.77;;;6.72;88.11
84661;BME280;74889;52.240;20.902;2023-12-20T12:50:06;98916.48;;;6.71;88.22
84661;BME280;74889;52.240;20.902;2023-12-20T12:52:32;98922.05;;;6.70;88.14
84661;BME280;74889;52.240;20.902;2023-12-20T12:54:58;98922.20;;;6.69;88.07
84661;BME280;74889;52.240;20.902;2023-12-20T12:57:23;98923.42;;;6.67;88.22
84661;BME280;74889;52.240;20.902;2023-12-20T12:59:49;98919.77;;;6.67;88.22
84661;BME280;74889;52.240;20.902;2023-12-20T13:02:16;98912.68;;;6.64;88.17